sensor_id;sensor_type;location;lat;lon;timestamp;pressure;altitude;pressure_sealevel;temperature;humidity
22647;BME280;11490;42.726;23.268;2023-03-21T00:00:15;95068.47;;;11.92;73.07
22647;BME280;11490;42.726;23.268;2023-03-21T00:02:41;95066.94;;;11.97;71.20
22647;BME280;11490;42.726;23.268;2023-03-21T00:05:06;95070.25;;;12.09;70.44
22647;BME280;11490;42.726;23.268;2023-03-21T00:07:32;95078.91;;;12.16;70.07
22647;BME280;11490;42.726;23.268;2023-03-21T00:09:57;95068.41;;;11.87;71.13
22647;BME280;11490;42.726;23.268;2023-03-21T00:12:23;95065.75;;;11.87;71.89
22647;BME280;11490;42.726;23.268;2023-03-21T00:14:48;95068.94;;;11.84;71.15
22647;BME280;11490;42.726;23.268;2023-03-21T00:17:15;95066.28;;;11.68;72.32
22647;BME280;11490;42.726;23.268;2023-03-21T00:19:40;95071.09;;;11.87;72.75
22647;BME280;11490;42.726;23.268;2023-03-21T00:22:06;95075.31;;;11.83;73.11
22647;BME280;11490;42.726;23.268;2023-03-21T00:24:32;95068.13;;;11.67;75.45
22647;BME280;11490;42.726;23.268;2023-03-21T00:26:58;95065.59;;;11.77;73.26
22647;BME280;11490;42.726;23.268;2023-03-21T00:29:23;95065.13;;;11.80;70.41
22647;BME280;11490;42.726;23.268;2023-03-21T00:31:48;95070.41;;;11.75;71.54
22647;BME280;11490;42.726;23.268;2023-03-21T00:34:14;95065.34;;;11.40;74.07
22647;BME280;11490;42.726;23.268;2023-03-21T00:36:40;95048.81;;;11.60;72.82
22647;BME280;11490;42.726;23.268;2023-03-21T00:39:05;95063.84;;;11.66;73.22
22647;BME280;11490;42.726;23.268;2023-03-21T00:41:31;95066.78;;;11.86;71.80
22647;BME280;11490;42.726;23.268;2023-03-21T00:43:56;95059.63;;;11.70;72.81
22647;BME280;11490;42.726;23.268;2023-03-21T00:46:22;95067.22;;;11.78;72.06
22647;BME280;11490;42.726;23.268;2023-03-21T00:48:47;95058.50;;;11.66;73.33
22647;BME280;11490;42.726;23.268;2023-03-21T00:51:18;95068.69;;;11.69;74.57
22647;BME280;11490;42.726;23.268;2023-03-21T00:53:50;95062.88;;;11.34;74.75
22647;BME280;11490;42.726;23.268;2023-03-21T00:56:15;95046.47;;;11.25;75.46
22647;BME280;11490;42.726;23.268;2023-03-21T00:58:40;95057.75;;;11.49;73.95
22647;BME280;11490;42.726;23.268;2023-03-21T01:01:06;95055.63;;;11.51;72.68
22647;BME280;11490;42.726;23.268;2023-03-21T01:03:33;95053.38;;;11.43;73.25
22647;BME280;11490;42.726;23.268;2023-03-21T01:06:10;95048.03;;;11.43;71.65
22647;BME280;11490;42.726;23.268;2023-03-21T01:08:42;95050.47;;;11.44;71.71
22647;BME280;11490;42.726;23.268;2023-03-21T01:11:11;95050.16;;;11.41;72.96
22647;BME280;11490;42.726;23.268;2023-03-21T01:13:37;95035.97;;;11.18;74.57
22647;BME280;11490;42.726;23.268;2023-03-21T01:16:03;95038.69;;;11.24;73.28
22647;BME280;11490;42.726;23.268;2023-03-21T01:18:30;95042.38;;;10.84;74.19
22647;BME280;11490;42.726;23.268;2023-03-21T01:20:57;95028.94;;;10.46;76.17
22647;BME280;11490;42.726;23.268;2023-03-21T01:23:24;95032.50;;;10.34;77.13
22647;BME280;11490;42.726;23.268;2023-03-21T01:25:51;95036.78;;;10.69;76.68
22647;BME280;11490;42.726;23.268;2023-03-21T01:28:17;95033.41;;;10.57;76.36
22647;BME280;11490;42.726;23.268;2023-03-21T01:30:47;95050.84;;;10.48;77.56
22647;BME280;11490;42.726;23.268;2023-03-21T01:33:13;95055.56;;;10.74;76.60
22647;BME280;11490;42.726;23.268;2023-03-21T01:35:39;95034.38;;;10.51;77.04
22647;BME280;11490;42.726;23.268;2023-03-21T01:38:05;95047.47;;;10.69;76.54
22647;BME280;11490;42.726;23.268;2023-03-21T01:40:30;95036.41;;;10.60;77.27
22647;BME280;11490;42.726;23.268;2023-03-21T01:42:56;95033.72;;;10.77;75.67
22647;BME280;11490;42.726;23.268;2023-03-21T01:48:26;95041.41;;;10.90;77.73
22647;BME280;11490;42.726;23.268;2023-03-21T01:50:53;95043.75;;;10.70;78.56
22647;BME280;11490;42.726;23.268;2023-03-21T01:53:21;95043.59;;;10.93;76.45
22647;BME280;11490;42.726;23.268;2023-03-21T01:55:48;95028.22;;;11.00;74.80
22647;BME280;11490;42.726;23.268;2023-03-21T01:58:16;94999.94;;;10.66;75.79
22647;BME280;11490;42.726;23.268;2023-03-21T02:00:49;95036.94;;;10.62;77.12
22647;BME280;11490;42.726;23.268;2023-03-21T02:03:16;95039.31;;;10.75;77.15
22647;BME280;11490;42.726;23.268;2023-03-21T02:08:20;95025.94;;;10.92;75.42
22647;BME280;11490;42.726;23.268;2023-03-21T02:10:47;95038.41;;;11.03;73.85
22647;BME280;11490;42.726;23.268;2023-03-21T02:13:13;95040.50;;;11.01;73.74
22647;BME280;11490;42.726;23.268;2023-03-21T02:15:56;95020.25;;;10.84;73.89
22647;BME280;11490;42.726;23.268;2023-03-21T02:18:55;95032.78;;;10.66;75.47
22647;BME280;11490;42.726;23.268;2023-03-21T02:24:51;95018.69;;;9.81;79.78
22647;BME280;11490;42.726;23.268;2023-03-21T02:27:25;95023.81;;;9.71;80.69
22647;BME280;11490;42.726;23.268;2023-03-21T02:36:08;95026.00;;;10.30;78.20
22647;BME280;11490;42.726;23.268;2023-03-21T02:39:02;95032.16;;;10.31;77.79
22647;BME280;11490;42.726;23.268;2023-03-21T02:41:48;95021.94;;;9.99;79.31
22647;BME280;11490;42.726;23.268;2023-03-21T02:44:22;95017.84;;;10.20;77.73
22647;BME280;11490;42.726;23.268;2023-03-21T02:46:58;95024.81;;;10.21;76.62
22647;BME280;11490;42.726;23.268;2023-03-21T02:51:58;95030.00;;;9.59;81.30
22647;BME280;11490;42.726;23.268;2023-03-21T02:54:25;95022.47;;;9.56;80.69
22647;BME280;11490;42.726;23.268;2023-03-21T02:56:54;95027.88;;;9.61;81.42
22647;BME280;11490;42.726;23.268;2023-03-21T02:59:22;95027.72;;;9.80;79.13
22647;BME280;11490;42.726;23.268;2023-03-21T03:01:50;95027.13;;;9.49;81.16
22647;BME280;11490;42.726;23.268;2023-03-21T03:04:21;95022.91;;;9.53;81.85
22647;BME280;11490;42.726;23.268;2023-03-21T03:10:31;95027.84;;;9.73;81.30
22647;BME280;11490;42.726;23.268;2023-03-21T03:15:56;95021.44;;;9.86;79.35
22647;BME280;11490;42.726;23.268;2023-03-21T03:24:14;95038.94;;;9.82;77.47
22647;BME280;11490;42.726;23.268;2023-03-21T03:27:24;95040.63;;;9.59;78.69
22647;BME280;11490;42.726;23.268;2023-03-21T03:29:31;95044.78;;;9.67;78.77
22647;BME280;11490;42.726;23.268;2023-03-21T03:32:03;95038.91;;;9.53;79.04
22647;BME280;11490;42.726;23.268;2023-03-21T03:34:39;95033.63;;;9.07;80.53
22647;BME280;11490;42.726;23.268;2023-03-21T03:37:09;95032.13;;;8.99;81.95
22647;BME280;11490;42.726;23.268;2023-03-21T03:39:47;95037.56;;;8.93;81.72
22647;BME280;11490;42.726;23.268;2023-03-21T03:42:18;95036.75;;;8.92;83.66
22647;BME280;11490;42.726;23.268;2023-03-21T03:44:45;95024.50;;;9.14;81.41
22647;BME280;11490;42.726;23.268;2023-03-21T03:47:39;95030.63;;;9.26;81.78
22647;BME280;11490;42.726;23.268;2023-03-21T03:50:12;95018.59;;;9.01;81.23
22647;BME280;11490;42.726;23.268;2023-03-21T03:52:44;95018.63;;;8.77;83.33
22647;BME280;11490;42.726;23.268;2023-03-21T03:55:13;95023.81;;;8.84;84.05
22647;BME280;11490;42.726;23.268;2023-03-21T03:57:40;95018.97;;;8.81;83.16
22647;BME280;11490;42.726;23.268;2023-03-21T04:00:06;95021.16;;;8.96;82.96
22647;BME280;11490;42.726;23.268;2023-03-21T04:02:38;95023.13;;;8.65;83.35
22647;BME280;11490;42.726;23.268;2023-03-21T04:05:04;95028.78;;;8.57;84.95
22647;BME280;11490;42.726;23.268;2023-03-21T04:07:30;95034.09;;;8.92;83.62
22647;BME280;11490;42.726;23.268;2023-03-21T04:09:56;95032.50;;;9.03;81.71
22647;BME280;11490;42.726;23.268;2023-03-21T04:12:22;95024.25;;;9.16;80.79
22647;BME280;11490;42.726;23.268;2023-03-21T04:14:47;95020.00;;;9.03;82.37
22647;BME280;11490;42.726;23.268;2023-03-21T04:17:13;95023.81;;;8.84;82.91
22647;BME280;11490;42.726;23.268;2023-03-21T04:19:39;95030.63;;;9.15;81.20
22647;BME280;11490;42.726;23.268;2023-03-21T04:22:05;95016.75;;;9.13;80.12
22647;BME280;11490;42.726;23.268;2023-03-21T04:24:31;95010.53;;;8.96;79.62
22647;BME280;11490;42.726;23.268;2023-03-21T04:26:58;95021.75;;;8.86;82.17
22647;BME280;11490;42.726;23.268;2023-03-21T04:29:24;95006.25;;;8.71;82.14
22647;BME280;11490;42.726;23.268;2023-03-21T04:31:50;95019.19;;;9.03;81.57
22647;BME280;11490;42.726;23.268;2023-03-21T04:34:15;95016.53;;;8.79;81.74
22647;BME280;11490;42.726;23.268;2023-03-21T04:36:41;95023.00;;;8.95;81.28
22647;BME280;11490;42.726;23.268;2023-03-21T04:39:10;95031.91;;;8.66;82.26
22647;BME280;11490;42.726;23.268;2023-03-21T04:41:41;95034.66;;;8.18;84.94
22647;BME280;11490;42.726;23.268;2023-03-21T04:44:07;95023.13;;;8.24;86.03
22647;BME280;11490;42.726;23.268;2023-03-21T04:46:33;95021.34;;;8.36;86.43
22647;BME280;11490;42.726;23.268;2023-03-21T04:48:59;95016.66;;;8.20;86.17
22647;BME280;11490;42.726;23.268;2023-03-21T04:51:25;95030.19;;;8.30;87.17
22647;BME280;11490;42.726;23.268;2023-03-21T04:53:50;95010.75;;;8.59;84.76
22647;BME280;11490;42.726;23.268;2023-03-21T04:56:17;95028.91;;;8.85;83.64
22647;BME280;11490;42.726;23.268;2023-03-21T04:58:43;95031.13;;;8.88;84.58
22647;BME280;11490;42.726;23.268;2023-03-21T05:01:09;95033.53;;;9.02;83.49
22647;BME280;11490;42.726;23.268;2023-03-21T05:03:38;95024.75;;;9.13;82.34
22647;BME280;11490;42.726;23.268;2023-03-21T05:06:07;95026.72;;;9.06;82.97
22647;BME280;11490;42.726;23.268;2023-03-21T05:08:34;95032.59;;;8.84;83.48
22647;BME280;11490;42.726;23.268;2023-03-21T05:11:00;95021.03;;;9.02;84.18
22647;BME280;11490;42.726;23.268;2023-03-21T05:13:25;95028.28;;;9.30;82.52
22647;BME280;11490;42.726;23.268;2023-03-21T05:15:51;95038.47;;;9.33;81.64
22647;BME280;11490;42.726;23.268;2023-03-21T05:18:16;95041.25;;;9.15;83.29
22647;BME280;11490;42.726;23.268;2023-03-21T05:20:49;95031.75;;;9.31;81.98
22647;BME280;11490;42.726;23.268;2023-03-21T05:23:18;95033.63;;;9.30;81.47
22647;BME280;11490;42.726;23.268;2023-03-21T05:25:44;95044.47;;;9.40;81.60
22647;BME280;11490;42.726;23.268;2023-03-21T05:28:09;95039.53;;;9.32;82.12
22647;BME280;11490;42.726;23.268;2023-03-21T05:30:34;95040.06;;;9.57;80.52
22647;BME280;11490;42.726;23.268;2023-03-21T05:33:00;95037.03;;;9.65;79.50
22647;BME280;11490;42.726;23.268;2023-03-21T05:35:25;95043.03;;;9.73;79.79
22647;BME280;11490;42.726;23.268;2023-03-21T05:37:51;95047.72;;;9.42;80.51
22647;BME280;11490;42.726;23.268;2023-03-21T05:40:17;95047.25;;;9.45;81.24
22647;BME280;11490;42.726;23.268;2023-03-21T05:42:43;95055.31;;;9.74;80.76
22647;BME280;11490;42.726;23.268;2023-03-21T05:45:08;95040.19;;;9.91;79.45
22647;BME280;11490;42.726;23.268;2023-03-21T05:47:34;95030.38;;;10.08;79.39
22647;BME280;11490;42.726;23.268;2023-03-21T05:50:00;95032.16;;;10.02;79.61
22647;BME280;11490;42.726;23.268;2023-03-21T05:52:25;95039.34;;;10.30;78.76
22647;BME280;11490;42.726;23.268;2023-03-21T05:54:51;95022.56;;;10.47;77.71
22647;BME280;11490;42.726;23.268;2023-03-21T05:57:16;95029.34;;;10.54;78.25
22647;BME280;11490;42.726;23.268;2023-03-21T05:59:43;95015.44;;;10.69;78.12
22647;BME280;11490;42.726;23.268;2023-03-21T06:02:08;95016.09;;;10.93;77.27
22647;BME280;11490;42.726;23.268;2023-03-21T06:04:34;95017.34;;;11.24;76.33
22647;BME280;11490;42.726;23.268;2023-03-21T06:07:00;95014.72;;;11.45;75.35
22647;BME280;11490;42.726;23.268;2023-03-21T06:09:25;95028.13;;;11.72;74.27
22647;BME280;11490;42.726;23.268;2023-03-21T06:11:53;95026.72;;;11.86;73.54
22647;BME280;11490;42.726;23.268;2023-03-21T06:14:19;95025.53;;;12.26;72.79
22647;BME280;11490;42.726;23.268;2023-03-21T06:16:45;95021.13;;;12.68;71.94
22647;BME280;11490;42.726;23.268;2023-03-21T06:19:11;95023.16;;;13.25;69.98
22647;BME280;11490;42.726;23.268;2023-03-21T06:21:36;95026.06;;;13.61;67.88
22647;BME280;11490;42.726;23.268;2023-03-21T06:24:02;95020.16;;;13.64;67.40
22647;BME280;11490;42.726;23.268;2023-03-21T06:26:28;95026.75;;;13.98;65.02
22647;BME280;11490;42.726;23.268;2023-03-21T06:28:53;95024.88;;;13.99;64.48
22647;BME280;11490;42.726;23.268;2023-03-21T06:31:19;95010.28;;;13.74;65.26
22647;BME280;11490;42.726;23.268;2023-03-21T06:33:49;95008.41;;;13.70;65.71
22647;BME280;11490;42.726;23.268;2023-03-21T06:36:16;95023.91;;;13.63;65.86
22647;BME280;11490;42.726;23.268;2023-03-21T06:38:42;95016.25;;;13.34;65.64
22647;BME280;11490;42.726;23.268;2023-03-21T06:41:08;95028.81;;;13.24;67.37
22647;BME280;11490;42.726;23.268;2023-03-21T06:43:34;95025.25;;;13.18;66.87
22647;BME280;11490;42.726;23.268;2023-03-21T06:45:59;95030.94;;;13.27;66.71
22647;BME280;11490;42.726;23.268;2023-03-21T06:48:26;95042.47;;;13.27;66.67
22647;BME280;11490;42.726;23.268;2023-03-21T06:50:53;95024.50;;;13.23;66.61
22647;BME280;11490;42.726;23.268;2023-03-21T06:53:20;95033.44;;;13.38;66.00
22647;BME280;11490;42.726;23.268;2023-03-21T06:55:49;95029.16;;;13.37;65.19
22647;BME280;11490;42.726;23.268;2023-03-21T06:58:14;95040.91;;;13.36;65.24
22647;BME280;11490;42.726;23.268;2023-03-21T07:00:40;95036.03;;;13.23;67.41
22647;BME280;11490;42.726;23.268;2023-03-21T07:03:06;95040.25;;;13.19;67.16
22647;BME280;11490;42.726;23.268;2023-03-21T07:05:31;95044.59;;;13.25;66.66
22647;BME280;11490;42.726;23.268;2023-03-21T07:07:56;95044.53;;;13.15;65.67
22647;BME280;11490;42.726;23.268;2023-03-21T07:10:22;95036.59;;;13.30;64.94
22647;BME280;11490;42.726;23.268;2023-03-21T07:12:47;95043.63;;;13.41;64.41
22647;BME280;11490;42.726;23.268;2023-03-21T07:15:12;95048.31;;;13.24;63.12
22647;BME280;11490;42.726;23.268;2023-03-21T07:17:38;95044.94;;;13.02;62.90
22647;BME280;11490;42.726;23.268;2023-03-21T07:20:04;95036.06;;;13.33;63.83
22647;BME280;11490;42.726;23.268;2023-03-21T07:22:32;95038.25;;;13.04;64.04
22647;BME280;11490;42.726;23.268;2023-03-21T07:24:58;95043.19;;;13.18;64.47
22647;BME280;11490;42.726;23.268;2023-03-21T07:27:23;95035.25;;;13.33;62.52
22647;BME280;11490;42.726;23.268;2023-03-21T07:29:48;95039.13;;;13.52;63.08
22647;BME280;11490;42.726;23.268;2023-03-21T07:32:14;95016.34;;;13.49;62.19
22647;BME280;11490;42.726;23.268;2023-03-21T07:34:40;95026.63;;;13.68;62.31
22647;BME280;11490;42.726;23.268;2023-03-21T07:37:09;95032.50;;;13.65;63.84
22647;BME280;11490;42.726;23.268;2023-03-21T07:39:34;95006.19;;;13.57;63.53
22647;BME280;11490;42.726;23.268;2023-03-21T07:42:00;95051.38;;;13.85;63.56
22647;BME280;11490;42.726;23.268;2023-03-21T07:44:27;95048.06;;;13.68;64.49
22647;BME280;11490;42.726;23.268;2023-03-21T07:46:53;95055.09;;;13.84;64.13
22647;BME280;11490;42.726;23.268;2023-03-21T07:49:18;95028.88;;;13.96;63.37
22647;BME280;11490;42.726;23.268;2023-03-21T07:51:44;94999.34;;;13.86;64.23
22647;BME280;11490;42.726;23.268;2023-03-21T07:54:10;95031.66;;;14.21;63.53
22647;BME280;11490;42.726;23.268;2023-03-21T07:56:35;95049.34;;;14.27;62.78
22647;BME280;11490;42.726;23.268;2023-03-21T07:59:00;95036.75;;;14.33;62.52
22647;BME280;11490;42.726;23.268;2023-03-21T08:01:26;95034.88;;;14.34;62.56
22647;BME280;11490;42.726;23.268;2023-03-21T08:03:51;95027.59;;;14.14;62.41
22647;BME280;11490;42.726;23.268;2023-03-21T08:06:20;95038.63;;;14.33;61.55
22647;BME280;11490;42.726;23.268;2023-03-21T08:08:47;95035.78;;;14.54;61.72
22647;BME280;11490;42.726;23.268;2023-03-21T08:11:13;95036.59;;;14.75;60.60
22647;BME280;11490;42.726;23.268;2023-03-21T08:13:39;95037.66;;;14.79;60.65
22647;BME280;11490;42.726;23.268;2023-03-21T08:16:04;95039.25;;;14.60;61.22
22647;BME280;11490;42.726;23.268;2023-03-21T08:18:31;95034.72;;;14.91;61.68
22647;BME280;11490;42.726;23.268;2023-03-21T08:20:57;95040.34;;;14.94;59.97
22647;BME280;11490;42.726;23.268;2023-03-21T08:23:23;95036.31;;;15.12;60.96
22647;BME280;11490;42.726;23.268;2023-03-21T08:25:53;95035.50;;;15.22;61.04
22647;BME280;11490;42.726;23.268;2023-03-21T08:28:20;95034.69;;;15.31;60.13
22647;BME280;11490;42.726;23.268;2023-03-21T08:30:46;95042.44;;;15.43;59.82
22647;BME280;11490;42.726;23.268;2023-03-21T08:33:11;95027.41;;;15.37;61.08
22647;BME280;11490;42.726;23.268;2023-03-21T08:35:38;95025.53;;;15.43;60.19
22647;BME280;11490;42.726;23.268;2023-03-21T08:38:04;95017.50;;;15.27;59.63
22647;BME280;11490;42.726;23.268;2023-03-21T08:40:31;95029.28;;;15.41;60.19
22647;BME280;11490;42.726;23.268;2023-03-21T08:42:56;95027.41;;;15.37;59.06
22647;BME280;11490;42.726;23.268;2023-03-21T08:45:22;95030.38;;;15.25;60.90
22647;BME280;11490;42.726;23.268;2023-03-21T08:47:48;95022.34;;;15.20;61.30
22647;BME280;11490;42.726;23.268;2023-03-21T08:50:16;95027.41;;;15.37;61.17
22647;BME280;11490;42.726;23.268;2023-03-21T08:52:42;95014.56;;;15.24;61.35
22647;BME280;11490;42.726;23.268;2023-03-21T08:55:08;95027.94;;;15.34;61.05
22647;BME280;11490;42.726;23.268;2023-03-21T08:57:34;95028.50;;;15.31;61.24
22647;BME280;11490;42.726;23.268;2023-03-21T09:00:00;95032.78;;;15.47;61.36
22647;BME280;11490;42.726;23.268;2023-03-21T09:02:25;95026.88;;;15.40;60.79
22647;BME280;11490;42.726;23.268;2023-03-21T09:04:51;95019.91;;;15.39;61.12
22647;BME280;11490;42.726;23.268;2023-03-21T09:07:23;95009.38;;;15.53;60.86
22647;BME280;11490;42.726;23.268;2023-03-21T09:09:50;95012.91;;;15.48;61.97
22647;BME280;11490;42.726;23.268;2023-03-21T09:12:17;95016.63;;;15.57;61.12
22647;BME280;11490;42.726;23.268;2023-03-21T09:14:42;95008.84;;;15.51;61.42
22647;BME280;11490;42.726;23.268;2023-03-21T09:17:08;95000.50;;;15.57;61.08
22647;BME280;11490;42.726;23.268;2023-03-21T09:19:33;95002.91;;;15.69;61.28
22647;BME280;11490;42.726;23.268;2023-03-21T09:21:59;94995.41;;;15.61;61.37
22647;BME280;11490;42.726;23.268;2023-03-21T09:24:25;94997.81;;;15.62;60.09
22647;BME280;11490;42.726;23.268;2023-03-21T09:26:51;94980.63;;;15.58;59.85
22647;BME280;11490;42.726;23.268;2023-03-21T09:29:17;94974.91;;;15.75;59.08
22647;BME280;11490;42.726;23.268;2023-03-21T09:31:47;94987.00;;;15.72;58.45
22647;BME280;11490;42.726;23.268;2023-03-21T09:34:12;94984.09;;;15.69;58.89
22647;BME280;11490;42.726;23.268;2023-03-21T09:36:41;94978.88;;;15.88;59.27
22647;BME280;11490;42.726;23.268;2023-03-21T09:39:08;94964.34;;;15.94;59.78
22647;BME280;11490;42.726;23.268;2023-03-21T09:49:48;94960.69;;;15.69;59.36
22647;BME280;11490;42.726;23.268;2023-03-21T09:52:22;94952.56;;;15.85;58.19
22647;BME280;11490;42.726;23.268;2023-03-21T09:54:49;94961.19;;;15.76;58.69
22647;BME280;11490;42.726;23.268;2023-03-21T09:57:36;94973.06;;;15.70;59.86
22647;BME280;11490;42.726;23.268;2023-03-21T10:00:06;94962.88;;;15.57;58.97
22647;BME280;11490;42.726;23.268;2023-03-21T10:02:49;94960.59;;;15.90;59.06
22647;BME280;11490;42.726;23.268;2023-03-21T10:08:03;94952.44;;;16.05;58.86
22647;BME280;11490;42.726;23.268;2023-03-21T10:10:54;94952.13;;;16.11;57.64
22647;BME280;11490;42.726;23.268;2023-03-21T10:13:22;94936.97;;;15.82;57.62
22647;BME280;11490;42.726;23.268;2023-03-21T10:15:49;94941.75;;;16.34;58.08
22647;BME280;11490;42.726;23.268;2023-03-21T10:18:23;94944.06;;;16.50;54.83
22647;BME280;11490;42.726;23.268;2023-03-21T10:20:50;94950.84;;;16.82;53.29
22647;BME280;11490;42.726;23.268;2023-03-21T10:23:18;94943.53;;;17.16;52.97
22647;BME280;11490;42.726;23.268;2023-03-21T10:25:50;94938.19;;;17.64;52.63
22647;BME280;11490;42.726;23.268;2023-03-21T10:28:23;94942.47;;;17.65;50.44
22647;BME280;11490;42.726;23.268;2023-03-21T10:30:55;94947.38;;;17.58;50.33
22647;BME280;11490;42.726;23.268;2023-03-21T10:33:28;94950.84;;;17.35;50.75
22647;BME280;11490;42.726;23.268;2023-03-21T10:36:03;94946.81;;;17.61;51.93
22647;BME280;11490;42.726;23.268;2023-03-21T10:38:30;94925.22;;;17.85;49.27
22647;BME280;11490;42.726;23.268;2023-03-21T10:40:55;94937.41;;;18.20;48.14
22647;BME280;11490;42.726;23.268;2023-03-21T10:45:53;94937.28;;;18.30;47.11
22647;BME280;11490;42.726;23.268;2023-03-21T10:48:19;94927.75;;;17.76;45.73
22647;BME280;11490;42.726;23.268;2023-03-21T10:50:48;94942.91;;;17.96;47.92
22647;BME280;11490;42.726;23.268;2023-03-21T10:53:20;94946.91;;;18.36;46.56
22647;BME280;11490;42.726;23.268;2023-03-21T10:55:49;94945.75;;;18.23;46.27
22647;BME280;11490;42.726;23.268;2023-03-21T10:58:21;94930.06;;;17.88;47.02
22647;BME280;11490;42.726;23.268;2023-03-21T11:00:56;94937.63;;;18.04;46.09
22647;BME280;11490;42.726;23.268;2023-03-21T11:03:26;94939.41;;;18.33;45.22
22647;BME280;11490;42.726;23.268;2023-03-21T11:06:16;94917.69;;;18.75;45.19
22647;BME280;11490;42.726;23.268;2023-03-21T11:08:53;94915.09;;;18.70;43.56
22647;BME280;11490;42.726;23.268;2023-03-21T11:11:40;94920.53;;;18.98;43.62
22647;BME280;11490;42.726;23.268;2023-03-21T11:14:31;94884.88;;;18.50;42.68
22647;BME280;11490;42.726;23.268;2023-03-21T11:16:57;94887.78;;;18.53;43.42
22647;BME280;11490;42.726;23.268;2023-03-21T11:19:31;94896.38;;;18.55;43.67
22647;BME280;11490;42.726;23.268;2023-03-21T11:21:58;94908.22;;;18.92;43.53
22647;BME280;11490;42.726;23.268;2023-03-21T11:24:28;94891.72;;;19.07;43.15
22647;BME280;11490;42.726;23.268;2023-03-21T11:26:55;94888.09;;;18.98;43.49
22647;BME280;11490;42.726;23.268;2023-03-21T11:29:28;94858.56;;;18.55;42.77
22647;BME280;11490;42.726;23.268;2023-03-21T11:32:15;94865.75;;;18.46;42.61
22647;BME280;11490;42.726;23.268;2023-03-21T11:34:49;94874.47;;;18.24;43.73
22647;BME280;11490;42.726;23.268;2023-03-21T11:40:28;94876.03;;;18.12;45.01
22647;BME280;11490;42.726;23.268;2023-03-21T11:42:59;94871.53;;;18.39;44.37
22647;BME280;11490;42.726;23.268;2023-03-21T11:45:32;94872.34;;;18.21;44.04
22647;BME280;11490;42.726;23.268;2023-03-21T11:47:59;94850.19;;;18.05;45.09
22647;BME280;11490;42.726;23.268;2023-03-21T11:50:37;94858.47;;;18.28;44.36
22647;BME280;11490;42.726;23.268;2023-03-21T11:53:39;94866.78;;;18.50;44.03
22647;BME280;11490;42.726;23.268;2023-03-21T11:56:31;94846.50;;;18.34;45.06
22647;BME280;11490;42.726;23.268;2023-03-21T12:07:04;94850.06;;;18.29;43.12
22647;BME280;11490;42.726;23.268;2023-03-21T12:15:20;94837.13;;;18.13;44.41
22647;BME280;11490;42.726;23.268;2023-03-21T12:21:13;94834.94;;;18.15;44.89
22647;BME280;11490;42.726;23.268;2023-03-21T12:26:18;94834.53;;;18.40;43.60
22647;BME280;11490;42.726;23.268;2023-03-21T12:34:55;94807.00;;;18.05;40.46
22647;BME280;11490;42.726;23.268;2023-03-21T12:37:31;94799.84;;;18.15;40.45
22647;BME280;11490;42.726;23.268;2023-03-21T12:40:30;94813.69;;;18.27;40.59
22647;BME280;11490;42.726;23.268;2023-03-21T12:46:00;94807.84;;;18.20;42.29
22647;BME280;11490;42.726;23.268;2023-03-21T12:48:56;94809.13;;;18.41;40.98
22647;BME280;11490;42.726;23.268;2023-03-21T12:51:28;94792.72;;;18.37;41.62
22647;BME280;11490;42.726;23.268;2023-03-21T12:54:36;94803.13;;;18.44;41.29
22647;BME280;11490;42.726;23.268;2023-03-21T12:57:25;94795.75;;;18.50;42.41
22647;BME280;11490;42.726;23.268;2023-03-21T13:00:04;94800.41;;;18.63;42.67
22647;BME280;11490;42.726;23.268;2023-03-21T13:02:39;94780.59;;;18.67;42.10
22647;BME280;11490;42.726;23.268;2023-03-21T13:07:42;94778.56;;;18.59;41.33
22647;BME280;11490;42.726;23.268;2023-03-21T13:10:14;94779.22;;;18.51;40.19
22647;BME280;11490;42.726;23.268;2023-03-21T13:12:55;94788.72;;;18.35;40.40
22647;BME280;11490;42.726;23.268;2023-03-21T13:18:30;94771.13;;;18.51;42.19
22647;BME280;11490;42.726;23.268;2023-03-21T13:21:01;94785.50;;;18.33;42.14
22647;BME280;11490;42.726;23.268;2023-03-21T13:23:35;94775.44;;;18.20;42.31
22647;BME280;11490;42.726;23.268;2023-03-21T13:26:01;94751.94;;;18.06;43.11
22647;BME280;11490;42.726;23.268;2023-03-21T13:28:29;94773.63;;;18.34;43.28
22647;BME280;11490;42.726;23.268;2023-03-21T13:31:30;94769.44;;;18.55;43.21
22647;BME280;11490;42.726;23.268;2023-03-21T13:33:58;94750.47;;;18.28;43.37
22647;BME280;11490;42.726;23.268;2023-03-21T13:36:29;94764.31;;;18.40;43.70
22647;BME280;11490;42.726;23.268;2023-03-21T13:39:01;94768.63;;;18.41;43.33
22647;BME280;11490;42.726;23.268;2023-03-21T13:41:37;94757.47;;;18.29;43.60
22647;BME280;11490;42.726;23.268;2023-03-21T13:49:12;94735.06;;;18.15;43.77
22647;BME280;11490;42.726;23.268;2023-03-21T13:51:49;94749.91;;;17.98;44.07
22647;BME280;11490;42.726;23.268;2023-03-21T13:54:42;94747.63;;;18.05;44.21
22647;BME280;11490;42.726;23.268;2023-03-21T13:57:41;94729.81;;;18.04;44.32
22647;BME280;11490;42.726;23.268;2023-03-21T14:00:26;94737.66;;;18.20;45.25
22647;BME280;11490;42.726;23.268;2023-03-21T14:03:14;94740.81;;;18.27;44.91
22647;BME280;11490;42.726;23.268;2023-03-21T14:05:48;94748.22;;;18.02;45.00
22647;BME280;11490;42.726;23.268;2023-03-21T14:08:17;94718.38;;;17.80;44.96
22647;BME280;11490;42.726;23.268;2023-03-21T14:10:47;94719.47;;;17.60;45.85
22647;BME280;11490;42.726;23.268;2023-03-21T14:13:19;94723.78;;;17.80;46.26
22647;BME280;11490;42.726;23.268;2023-03-21T14:15:50;94734.91;;;17.74;46.47
22647;BME280;11490;42.726;23.268;2023-03-21T14:18:19;94730.03;;;17.57;46.12
22647;BME280;11490;42.726;23.268;2023-03-21T14:20:51;94723.50;;;17.63;46.34
22647;BME280;11490;42.726;23.268;2023-03-21T14:23:17;94720.81;;;17.63;46.02
22647;BME280;11490;42.726;23.268;2023-03-21T14:25:43;94718.22;;;17.53;46.31
22647;BME280;11490;42.726;23.268;2023-03-21T14:30:43;94736.22;;;17.39;46.71
22647;BME280;11490;42.726;23.268;2023-03-21T14:33:16;94729.16;;;17.43;46.64